Time;durP1;ratioP1;P1;durP2;ratioP2;P2;SDS_P1;SDS_P2;PMS_P1;PMS_P2;Temp;Humidity;BMP_temperature;BMP_pressure;BME280_temperature;BME280_humidity;BME280_pressure;Samples;Min_cycle;Max_cycle;Signal;HPM_P1;HPM_P2
2023/04/21 00:00:57;;;;;;;19.20;9.38;;;;;;;8.71;100.00;100919.28;5167335;28;20519;-72
2023/04/21 00:03:28;;;;;;;16.55;9.88;;;;;;;8.69;100.00;100910.63;5165810;28;20452;-72
2023/04/21 00:05:59;;;;;;;15.77;10.02;;;;;;;8.65;100.00;100917.66;5179350;23;20130;-71
2023/04/21 00:08:29;;;;;;;17.08;9.50;;;;;;;8.59;100.00;100909.13;5169267;28;20030;-73
2023/04/21 00:10:59;;;;;;;18.50;10.23;;;;;;;8.57;100.00;100911.75;5200407;28;20245;-72
2023/04/21 00:13:30;;;;;;;16.30;9.63;;;;;;;8.60;100.00;100909.09;5188915;28;20033;-73
2023/04/21 00:16:01;;;;;;;19.13;9.55;;;;;;;8.64;100.00;100910.72;5190978;28;20109;-73
2023/04/21 00:18:31;;;;;;;17.90;8.82;;;;;;;8.67;100.00;100918.47;5184063;28;20117;-73
2023/04/21 00:21:02;;;;;;;16.02;9.40;;;;;;;8.74;100.00;100917.44;5191643;28;20105;-72
2023/04/21 00:23:32;;;;;;;18.35;9.20;;;;;;;8.74;100.00;100909.63;5188840;28;20040;-72
2023/04/21 00:26:02;;;;;;;11.88;7.85;;;;;;;8.77;100.00;100904.38;5179208;28;20037;-73
2023/04/21 00:28:33;;;;;;;17.10;8.02;;;;;;;8.84;100.00;100905.91;5181451;28;20030;-73
2023/04/21 00:31:03;;;;;;;13.93;7.97;;;;;;;8.75;100.00;100900.06;5185527;28;20494;-73
2023/04/21 00:33:34;;;;;;;17.15;7.88;;;;;;;8.71;100.00;100904.47;5198711;28;20025;-73
2023/04/21 00:36:04;;;;;;;15.07;8.10;;;;;;;8.70;100.00;100892.34;5182432;28;20026;-72
2023/04/21 00:38:35;;;;;;;14.05;8.00;;;;;;;8.68;100.00;100894.13;5180944;28;20026;-72
2023/04/21 00:41:05;;;;;;;14.85;7.93;;;;;;;8.71;100.00;100888.84;5189450;28;20367;-70
2023/04/21 00:43:35;;;;;;;16.48;7.90;;;;;;;8.68;100.00;100883.72;5182810;28;20040;-70
2023/04/21 00:46:06;;;;;;;15.05;7.85;;;;;;;8.80;100.00;100878.22;5186883;28;20527;-72
2023/04/21 00:48:36;;;;;;;15.10;7.53;;;;;;;8.82;100.00;100876.44;5183323;28;20041;-70
2023/04/21 00:51:06;;;;;;;16.73;8.00;;;;;;;8.70;100.00;100881.94;5183120;28;20675;-72
2023/04/21 00:53:37;;;;;;;15.35;7.47;;;;;;;8.68;100.00;100878.50;5189775;28;20029;-74
2023/04/21 00:56:07;;;;;;;15.20;7.65;;;;;;;8.69;100.00;100879.38;5189430;28;20124;-71
2023/04/21 00:58:41;;;;;;;14.57;7.40;;;;;;;8.71;100.00;100872.38;5164050;28;20021;-73
2023/04/21 01:01:12;;;;;;;14.88;9.02;;;;;;;8.71;100.00;100862.78;5189707;28;20041;-72
2023/04/21 01:03:43;;;;;;;15.43;8.02;;;;;;;8.71;100.00;100878.44;5190228;28;20096;-71
2023/04/21 01:06:13;;;;;;;13.82;7.50;;;;;;;8.71;100.00;100862.78;5189388;28;20398;-72
2023/04/21 01:08:45;;;;;;;13.93;7.93;;;;;;;8.71;100.00;100861.94;5185766;28;20455;-70
2023/04/21 01:11:15;;;;;;;14.98;7.82;;;;;;;8.72;100.00;100864.50;5183674;28;20028;-72
2023/04/21 01:13:46;;;;;;;15.32;7.55;;;;;;;8.71;100.00;100856.75;5187539;28;20025;-72
2023/04/21 01:16:17;;;;;;;12.27;7.72;;;;;;;8.64;100.00;100863.84;5189163;28;20025;-72
2023/04/21 01:18:47;;;;;;;17.75;8.00;;;;;;;8.67;100.00;100865.50;5188062;28;20376;-73
2023/04/21 01:21:20;;;;;;;13.48;7.45;;;;;;;8.70;100.00;100861.09;5185176;28;20033;-72
2023/04/21 01:23:50;;;;;;;16.88;7.57;;;;;;;8.78;100.00;100859.16;5179041;28;20554;-71
2023/04/21 01:26:21;;;;;;;13.05;7.25;;;;;;;8.78;100.00;100856.56;5164000;28;20022;-72
2023/04/21 01:28:55;;;;;;;18.02;7.95;;;;;;;8.79;100.00;100863.50;5189760;28;20032;-72
2023/04/21 01:31:26;;;;;;;12.77;7.35;;;;;;;8.77;100.00;100853.97;5185411;28;20061;-72
2023/04/21 01:33:56;;;;;;;15.60;7.97;;;;;;;8.80;100.00;100860.00;5194797;28;20064;-72
2023/04/21 01:36:26;;;;;;;14.38;7.53;;;;;;;8.80;100.00;100852.16;5186948;28;20076;-72
2023/04/21 01:38:57;;;;;;;15.23;8.05;;;;;;;8.82;100.00;100849.50;5184607;28;20506;-72
2023/04/21 01:41:27;;;;;;;15.50;7.32;;;;;;;8.78;100.00;100853.09;5182805;28;20108;-72
2023/04/21 01:43:57;;;;;;;17.88;7.80;;;;;;;8.74;100.00;100852.28;5187385;28;20439;-72
2023/04/21 01:46:28;;;;;;;16.15;7.47;;;;;;;8.81;100.00;100853.88;5181987;28;20431;-73
2023/04/21 01:48:58;;;;;;;14.75;7.68;;;;;;;8.74;100.00;100854.91;5196005;28;20288;-74
2023/04/21 01:51:30;;;;;;;13.50;7.20;;;;;;;8.72;100.00;100851.47;5188220;28;20037;-70
2023/04/21 01:54:00;;;;;;;11.60;6.60;;;;;;;8.83;100.00;100856.44;5180339;28;20088;-73
2023/04/21 01:56:30;;;;;;;15.90;7.57;;;;;;;8.75;100.00;100851.41;5180297;28;20025;-73
2023/04/21 01:59:01;;;;;;;12.98;6.85;;;;;;;8.76;100.00;100850.50;5187586;28;20029;-73
2023/04/21 02:01:31;;;;;;;11.93;6.85;;;;;;;8.77;100.00;100847.03;5196241;28;20036;-72
2023/04/21 02:04:03;;;;;;;13.80;7.30;;;;;;;8.73;100.00;100850.59;5190511;28;20458;-73
2023/04/21 02:06:33;;;;;;;12.68;6.90;;;;;;;8.72;100.00;100845.44;5189155;28;20208;-72
2023/04/21 02:09:04;;;;;;;13.00;7.30;;;;;;;8.75;100.00;100854.00;5183418;28;20093;-73
2023/04/21 02:11:34;;;;;;;12.60;7.32;;;;;;;8.74;100.00;100854.06;5181379;28;20034;-72
2023/04/21 02:14:04;;;;;;;13.93;7.55;;;;;;;8.69;100.00;100848.94;5181234;28;20076;-73
2023/04/21 02:16:35;;;;;;;14.23;7.07;;;;;;;8.64;100.00;100845.59;5188528;28;20542;-73
2023/04/21 02:19:05;;;;;;;14.02;7.35;;;;;;;8.65;100.00;100849.91;5166377;28;20164;-72
2023/04/21 02:21:35;;;;;;;15.00;7.43;;;;;;;8.69;100.00;100843.75;5177494;28;20117;-72
2023/04/21 02:24:06;;;;;;;11.55;6.75;;;;;;;8.66;100.00;100846.41;5187148;28;20491;-70
2023/04/21 02:26:36;;;;;;;14.70;7.00;;;;;;;8.70;100.00;100842.00;5185466;28;20045;-70
2023/04/21 02:29:06;;;;;;;12.75;6.90;;;;;;;8.79;100.00;100842.63;5185635;28;20384;-71
2023/04/21 02:31:37;;;;;;;12.85;6.78;;;;;;;8.83;100.00;100835.59;5180463;28;20034;-71
2023/04/21 02:34:07;;;;;;;13.65;6.40;;;;;;;8.85;100.00;100832.06;5187648;28;20029;-71
2023/04/21 02:36:38;;;;;;;11.25;6.20;;;;;;;8.89;100.00;100840.66;5185688;28;20033;-72
2023/04/21 02:39:08;;;;;;;16.95;7.00;;;;;;;8.87;100.00;100842.47;5186233;28;20554;-73
2023/04/21 02:41:38;;;;;;;17.15;6.80;;;;;;;8.89;100.00;100838.06;5184044;28;20037;-71
2023/04/21 02:44:09;;;;;;;11.10;6.45;;;;;;;8.87;100.00;100842.47;5190952;28;20029;-73
2023/04/21 02:46:40;;;;;;;10.95;6.65;;;;;;;8.85;100.00;100834.66;5184639;28;20414;-73
2023/04/21 02:49:10;;;;;;;12.75;6.35;;;;;;;8.88;100.00;100837.19;5181691;28;20590;-72
2023/04/21 02:51:41;;;;;;;15.73;6.50;;;;;;;8.88;100.00;100831.97;5189100;28;20030;-71
2023/04/21 02:54:11;;;;;;;10.38;6.22;;;;;;;8.85;100.00;100832.06;5184321;28;20157;-73
2023/04/21 02:56:41;;;;;;;12.32;6.03;;;;;;;8.88;100.00;100834.59;5180431;28;20025;-72
2023/04/21 02:59:15;;;;;;;13.07;6.80;;;;;;;8.91;100.00;100833.66;5179738;28;20032;-73
2023/04/21 03:01:47;;;;;;;17.48;6.60;;;;;;;8.86;100.00;100828.56;5184278;28;20041;-71
2023/04/21 03:04:18;;;;;;;12.85;6.53;;;;;;;8.85;100.00;100829.44;5170327;28;20387;-73
2023/04/21 03:06:49;;;;;;;9.70;6.05;;;;;;;8.92;100.00;100823.19;5179183;28;20025;-71
2023/04/21 03:09:20;;;;;;;12.40;6.47;;;;;;;8.87;100.00;100835.47;5170744;28;20022;-73
2023/04/21 03:11:50;;;;;;;14.05;6.20;;;;;;;8.82;100.00;100833.88;5187606;28;20025;-71
2023/04/21 03:14:20;;;;;;;13.30;6.38;;;;;;;8.84;100.00;100830.34;5188994;28;20104;-74
2023/04/21 03:16:51;;;;;;;11.30;5.95;;;;;;;8.83;100.00;100830.38;5171040;28;20502;-71
2023/04/21 03:19:21;;;;;;;11.45;5.80;;;;;;;8.80;100.00;100836.53;5190898;28;20048;-71
2023/04/21 03:21:51;;;;;;;12.80;6.32;;;;;;;8.75;100.00;100827.94;5188929;28;20022;-71
2023/04/21 03:24:21;;;;;;;13.50;6.40;;;;;;;8.77;100.00;100834.00;5183191;28;20058;-72
2023/04/21 03:26:52;;;;;;;12.45;6.55;;;;;;;8.73;100.00;100834.94;5171696;28;20206;-72
2023/04/21 03:29:22;;;;;;;12.82;6.18;;;;;;;8.70;100.00;100828.97;5187017;28;20034;-72
2023/04/21 03:31:53;;;;;;;12.75;6.13;;;;;;;8.67;100.00;100840.31;5188067;28;20388;-71
2023/04/21 03:34:23;;;;;;;14.02;6.15;;;;;;;8.65;100.00;100833.41;5180849;28;20029;-72
2023/04/21 03:36:54;;;;;;;14.68;6.30;;;;;;;8.61;100.00;100837.88;5183494;28;20075;-72
2023/04/21 03:39:24;;;;;;;11.55;6.10;;;;;;;8.62;100.00;100834.38;5180849;28;20079;-72
2023/04/21 03:41:55;;;;;;;11.75;6.28;;;;;;;8.60;100.00;100832.69;5164626;28;20030;-71
2023/04/21 03:44:27;;;;;;;12.13;6.03;;;;;;;8.62;100.00;100834.38;5192342;28;20368;-73
2023/04/21 03:46:58;;;;;;;11.38;5.68;;;;;;;8.62;100.00;100830.91;5188625;28;20035;-71
2023/04/21 03:49:28;;;;;;;15.45;5.97;;;;;;;8.67;100.00;100832.50;5190011;28;20045;-72
2023/04/21 03:51:58;;;;;;;11.13;5.70;;;;;;;8.62;100.00;100842.19;5186254;28;20025;-72
2023/04/21 03:54:29;;;;;;;14.57;5.93;;;;;;;8.59;100.00;100834.41;5184483;28;20037;-72
2023/04/21 03:56:59;;;;;;;11.20;6.40;;;;;;;8.59;100.00;100842.22;5182204;28;20041;-73
2023/04/21 03:59:30;;;;;;;13.93;6.22;;;;;;;8.63;100.00;100849.09;5173528;28;20025;-72
2023/04/21 04:02:00;;;;;;;12.95;5.68;;;;;;;8.58;100.00;100842.28;5186134;28;20052;-72
2023/04/21 04:04:30;;;;;;;12.02;5.50;;;;;;;8.66;100.00;100841.22;5188120;28;20029;-74
2023/04/21 04:07:01;;;;;;;13.27;5.63;;;;;;;8.62;100.00;100842.19;5188320;28;20376;-71
2023/04/21 04:09:32;;;;;;;9.55;5.45;;;;;;;8.68;100.00;100831.59;5189390;28;20025;-71
2023/04/21 04:12:02;;;;;;;13.15;5.40;;;;;;;8.75;100.00;100832.31;5183391;28;20391;-72
2023/04/21 04:14:32;;;;;;;14.43;5.75;;;;;;;8.60;100.00;100836.16;5179047;28;20549;-72
2023/04/21 04:17:03;;;;;;;11.55;5.32;;;;;;;8.64;100.00;100835.19;5181282;28;20030;-72
2023/04/21 04:19:33;;;;;;;14.52;5.38;;;;;;;8.63;100.00;100828.25;5188239;28;20034;-72
2023/04/21 04:22:03;;;;;;;11.60;5.00;;;;;;;8.63;100.00;100837.81;5175026;28;20121;-71
2023/04/21 04:24:34;;;;;;;16.02;5.63;;;;;;;8.77;100.00;100835.75;5181578;28;20088;-72
2023/04/21 04:27:05;;;;;;;15.20;5.80;;;;;;;8.76;100.00;100840.09;5181024;28;20037;-72
2023/04/21 04:29:36;;;;;;;9.45;5.28;;;;;;;8.79;100.00;100846.97;5186139;28;20033;-69
2023/04/21 04:32:09;;;;;;;12.77;5.13;;;;;;;8.80;100.00;100844.34;5185604;28;20042;-72
2023/04/21 04:34:40;;;;;;;14.13;4.95;;;;;;;8.88;100.00;100839.78;5183912;28;20475;-71
2023/04/21 04:37:12;;;;;;;11.57;5.43;;;;;;;9.04;100.00;100845.50;5185106;28;20032;-70
2023/04/21 04:39:42;;;;;;;10.15;5.07;;;;;;;9.05;100.00;100844.59;5166246;28;20025;-72
2023/04/21 04:42:13;;;;;;;10.52;5.40;;;;;;;9.06;100.00;100831.50;5180338;28;20104;-71
2023/04/21 04:44:43;;;;;;;12.05;5.40;;;;;;;9.07;100.00;100845.41;5184329;28;20060;-72
2023/04/21 04:47:14;;;;;;;10.77;4.90;;;;;;;9.15;100.00;100841.72;5167079;28;20021;-70
2023/04/21 04:49:44;;;;;;;11.90;5.13;;;;;;;9.22;100.00;100851.09;5186857;28;20104;-71
2023/04/21 04:52:14;;;;;;;12.30;4.80;;;;;;;9.38;100.00;100844.59;5174138;28;20046;-72
2023/04/21 04:54:45;;;;;;;13.57;5.57;;;;;;;9.56;100.00;100847.56;5189912;28;20034;-72
2023/04/21 04:57:15;;;;;;;13.35;4.82;;;;;;;9.69;100.00;100845.47;5189469;28;20034;-73
2023/04/21 04:59:45;;;;;;;8.93;4.72;;;;;;;9.71;100.00;100846.28;5150723;28;20073;-72
2023/04/21 05:02:16;;;;;;;11.20;5.68;;;;;;;9.85;100.00;100845.00;5171578;28;20030;-72
2023/04/21 05:04:46;;;;;;;12.50;4.70;;;;;;;10.05;100.00;100852.28;5178557;28;20037;-73
2023/04/21 05:07:16;;;;;;;12.90;4.55;;;;;;;10.21;100.00;100848.34;5174546;28;20034;-73
2023/04/21 05:09:46;;;;;;;8.98;4.43;;;;;;;10.54;100.00;100847.31;5162445;28;20026;-72
2023/04/21 05:12:17;;;;;;;10.48;4.00;;;;;;;11.39;100.00;100847.91;5156031;28;20278;-71
2023/04/21 05:14:47;;;;;;;9.73;4.00;;;;;;;12.64;100.00;100841.47;5164485;28;20037;-71
2023/04/21 05:17:17;;;;;;;8.85;3.83;;;;;;;13.64;92.43;100837.25;5185972;28;20021;-72
2023/04/21 05:19:48;;;;;;;10.02;3.80;;;;;;;13.80;90.96;100826.91;5187493;28;20037;-71
2023/04/21 05:22:18;;;;;;;9.93;4.13;;;;;;;14.21;88.20;100831.16;5187192;28;20057;-73
2023/04/21 05:24:48;;;;;;;8.10;3.78;;;;;;;14.98;84.13;100835.25;5182734;28;20025;-72
2023/04/21 05:27:19;;;;;;;6.57;3.08;;;;;;;15.58;80.54;100837.47;5191860;28;20399;-74
2023/04/21 05:29:49;;;;;;;12.07;3.80;;;;;;;16.00;79.80;100824.66;5180464;28;20022;-74
2023/04/21 05:32:20;;;;;;;8.68;3.10;;;;;;;17.31;75.38;100818.84;5181379;28;20026;-71
2023/04/21 05:34:50;;;;;;;11.82;3.28;;;;;;;16.98;75.62;100833.19;5167498;28;20028;-72
2023/04/21 05:37:20;;;;;;;8.23;3.20;;;;;;;18.43;70.49;100828.69;5193378;28;20067;-74
2023/04/21 05:39:51;;;;;;;13.57;3.53;;;;;;;19.02;70.38;100830.03;5167887;28;20398;-72
2023/04/21 05:42:21;;;;;;;9.73;3.17;;;;;;;18.90;70.03;100828.16;5185665;28;20034;-71
2023/04/21 05:44:53;;;;;;;7.95;2.95;;;;;;;19.19;67.86;100831.56;5191842;28;20458;-73
2023/04/21 05:47:23;;;;;;;10.73;3.40;;;;;;;18.55;68.55;100838.50;5186098;28;20376;-72
2023/04/21 05:49:53;;;;;;;8.45;3.10;;;;;;;17.72;71.54;100845.50;5188511;28;20121;-73
2023/04/21 05:52:24;;;;;;;7.20;3.10;;;;;;;15.87;77.51;100852.59;5185126;28;20097;-73
2023/04/21 05:54:54;;;;;;;8.82;3.03;;;;;;;14.54;83.81;100861.13;5168791;28;20036;-71
2023/04/21 05:57:24;;;;;;;10.48;3.38;;;;;;;14.12;86.01;100863.94;5187547;28;20100;-72
2023/04/21 05:59:54;;;;;;;13.50;3.30;;;;;;;13.63;87.79;100863.56;5183620;28;20064;-73
2023/04/21 06:02:25;;;;;;;9.88;3.03;;;;;;;13.67;89.60;100859.88;5188487;28;20026;-73
2023/04/21 06:04:56;;;;;;;9.38;3.38;;;;;;;13.61;91.00;100857.53;5188955;28;20100;-73
2023/04/21 06:07:26;;;;;;;10.23;3.35;;;;;;;13.32;94.12;100860.53;5211859;23;20423;-74
2023/04/21 06:09:57;;;;;;;9.00;3.72;;;;;;;13.21;95.41;100852.28;5169804;28;20106;-73
2023/04/21 06:12:27;;;;;;;9.20;4.25;;;;;;;13.09;97.91;100850.16;5178177;28;20033;-75
2023/04/21 06:14:58;;;;;;;8.48;3.85;;;;;;;13.12;96.37;100847.38;5184712;28;20029;-75
2023/04/21 06:17:28;;;;;;;10.13;4.32;;;;;;;13.06;95.13;100845.88;5188065;28;20301;-75
2023/04/21 06:19:58;;;;;;;11.13;3.67;;;;;;;13.18;97.13;100841.88;5169645;28;20483;-74
2023/04/21 06:22:29;;;;;;;8.15;3.50;;;;;;;13.22;94.46;100838.22;5171990;28;20057;-74
2023/04/21 06:24:59;;;;;;;7.82;3.63;;;;;;;13.38;92.84;100841.91;5186838;28;20511;-75
2023/04/21 06:27:29;;;;;;;10.27;4.00;;;;;;;13.52;95.08;100837.75;5188332;28;20076;-76
2023/04/21 06:29:59;;;;;;;11.10;3.90;;;;;;;14.17;92.69;100833.09;5186408;28;20028;-75
2023/04/21 06:32:30;;;;;;;10.35;3.72;;;;;;;16.15;83.08;100826.47;5169497;28;20026;-75
2023/04/21 06:35:00;;;;;;;16.05;3.97;;;;;;;17.58;74.84;100817.25;5185915;28;20028;-76
2023/04/21 06:37:30;;;;;;;12.65;3.13;;;;;;;17.53;72.09;100818.47;5164496;28;20033;-75
2023/04/21 06:40:01;;;;;;;7.75;2.80;;;;;;;18.70;71.48;100813.69;5184277;28;20478;-75
2023/04/21 06:42:31;;;;;;;9.18;3.40;;;;;;;19.80;68.05;100805.25;5176833;28;20033;-75
2023/04/21 06:45:01;;;;;;;11.13;3.33;;;;;;;20.02;66.82;100808.13;5167105;28;20036;-76
2023/04/21 06:47:32;;;;;;;7.78;3.55;;;;;;;19.02;68.14;100819.41;5191875;28;20279;-75
2023/04/21 06:50:02;;;;;;;8.43;2.90;;;;;;;18.72;68.42;100814.44;5188703;28;20040;-74
2023/04/21 06:52:32;;;;;;;10.10;3.15;;;;;;;18.53;69.93;100814.75;5191542;28;20026;-76
2023/04/21 06:55:03;;;;;;;11.33;3.60;;;;;;;19.49;68.23;100805.66;5191736;28;20032;-76
2023/04/21 06:57:34;;;;;;;9.43;3.28;;;;;;;18.75;68.44;100815.09;5189089;28;20605;-74
2023/04/21 07:00:04;;;;;;;9.30;3.10;;;;;;;18.57;69.88;100804.81;5188430;28;20032;-72
2023/04/21 07:02:35;;;;;;;7.72;3.22;;;;;;;19.14;66.93;100807.16;5186513;28;20030;-75
2023/04/21 07:05:05;;;;;;;10.52;3.05;;;;;;;19.12;66.12;100798.47;5188152;28;20471;-75
2023/04/21 07:07:36;;;;;;;10.20;3.28;;;;;;;19.85;63.97;100796.00;5190653;28;20040;-76
2023/04/21 07:10:06;;;;;;;8.10;3.13;;;;;;;21.03;62.42;100791.78;5190094;28;20025;-75
2023/04/21 07:12:37;;;;;;;9.70;3.58;;;;;;;20.70;61.57;100780.94;5193891;28;20494;-72
2023/04/21 07:15:08;;;;;;;7.07;2.97;;;;;;;20.65;62.28;100787.56;5186566;28;20037;-73
2023/04/21 07:17:38;;;;;;;7.75;3.22;;;;;;;20.81;62.69;100794.28;5190808;28;20041;-74
2023/04/21 07:20:09;;;;;;;9.77;3.40;;;;;;;21.60;61.91;100784.66;5192292;28;20083;-73
2023/04/21 07:22:39;;;;;;;8.65;3.90;;;;;;;22.11;60.80;100781.41;5189443;28;20293;-73
2023/04/21 07:25:09;;;;;;;5.83;2.80;;;;;;;21.52;59.73;100771.09;5184839;28;20551;-72
2023/04/21 07:27:40;;;;;;;12.52;3.15;;;;;;;22.51;59.52;100774.63;5172351;28;20318;-75
2023/04/21 07:30:11;;;;;;;6.55;2.80;;;;;;;20.99;60.53;100783.16;5190132;28;20025;-75
2023/04/21 07:32:41;;;;;;;9.73;2.63;;;;;;;20.24;61.73;100785.25;5189154;28;20139;-75
2023/04/21 07:35:11;;;;;;;7.38;3.20;;;;;;;20.53;63.75;100784.00;5171036;28;20029;-75
2023/04/21 07:37:41;;;;;;;11.60;3.40;;;;;;;20.26;63.26;100788.63;5187735;28;20902;-76
2023/04/21 07:40:13;;;;;;;8.93;3.38;;;;;;;21.68;62.35;100776.94;5188842;28;20045;-75
2023/04/21 07:42:44;;;;;;;8.10;3.38;;;;;;;21.89;59.47;100776.13;5195359;28;20049;-76
2023/04/21 07:45:14;;;;;;;9.02;3.17;;;;;;;21.92;60.47;100775.03;5190459;28;20052;-76
2023/04/21 07:47:45;;;;;;;9.80;3.35;;;;;;;22.23;59.83;100771.63;5191408;28;20455;-75
2023/04/21 07:50:15;;;;;;;9.90;3.25;;;;;;;22.56;57.94;100772.44;5192080;28;20026;-75
2023/04/21 07:52:46;;;;;;;9.77;3.50;;;;;;;22.22;60.04;100768.13;5188639;28;20022;-75
2023/04/21 07:55:17;;;;;;;7.07;3.10;;;;;;;21.64;59.75;100770.19;5190495;28;20029;-75
2023/04/21 07:57:47;;;;;;;9.93;2.95;;;;;;;22.00;59.36;100765.47;5181272;28;20029;-76
2023/04/21 08:00:18;;;;;;;7.80;3.15;;;;;;;21.42;60.35;100770.13;5190612;28;20033;-75
2023/04/21 08:02:48;;;;;;;6.80;3.03;;;;;;;21.90;61.29;100769.00;5188179;28;20517;-72
2023/04/21 08:05:19;;;;;;;7.07;3.55;;;;;;;21.70;59.47;100775.88;5173371;28;20699;-76
2023/04/21 08:07:49;;;;;;;8.63;3.50;;;;;;;20.62;62.40;100772.69;5186700;28;20076;-72
2023/04/21 08:10:19;;;;;;;7.07;3.33;;;;;;;21.60;60.47;100768.69;5188508;28;20186;-76
2023/04/21 08:12:50;;;;;;;7.13;3.30;;;;;;;20.89;61.90;100765.38;5190137;28;20108;-74
2023/04/21 08:15:20;;;;;;;8.93;3.50;;;;;;;21.32;61.56;100774.44;5190004;28;20021;-76
2023/04/21 08:17:51;;;;;;;7.97;3.58;;;;;;;20.79;61.75;100761.66;5185605;28;20064;-75
2023/04/21 08:20:21;;;;;;;7.82;3.38;;;;;;;21.47;62.03;100757.31;5189142;28;20038;-76
2023/04/21 08:22:51;;;;;;;7.95;3.30;;;;;;;21.89;60.40;100765.47;5189321;28;20022;-75
2023/04/21 08:25:22;;;;;;;7.32;3.60;;;;;;;22.96;57.53;100755.69;5170255;28;20603;-75
2023/04/21 08:27:52;;;;;;;6.00;3.17;;;;;;;23.08;56.46;100757.34;5190623;28;20399;-75
2023/04/21 08:30:22;;;;;;;8.77;3.20;;;;;;;23.24;56.16;100765.78;5191720;28;20427;-75
2023/04/21 08:32:53;;;;;;;12.23;3.55;;;;;;;21.73;55.68;100757.00;5188418;28;20438;-72
2023/04/21 08:35:23;;;;;;;7.07;3.25;;;;;;;22.04;56.47;100750.09;5189110;28;20482;-75
2023/04/21 08:37:54;;;;;;;6.90;3.22;;;;;;;22.34;56.71;100744.97;5186572;28;20033;-72
2023/04/21 08:40:32;;;;;;;8.10;2.70;;;;;;;22.89;54.21;100740.34;5188136;28;20029;-75
2023/04/21 08:43:06;;;;;;;9.43;3.17;;;;;;;22.50;54.83;100748.09;5188129;28;20032;-74
2023/04/21 08:45:38;;;;;;;7.47;2.70;;;;;;;21.45;56.57;100759.22;5188216;28;20040;-72
2023/04/21 08:48:15;;;;;;;6.13;2.67;;;;;;;22.25;57.43;100753.72;5188341;28;20190;-75
2023/04/21 08:50:48;;;;;;;10.65;3.08;;;;;;;22.39;57.61;100742.81;5169568;28;20022;-76
2023/04/21 08:53:19;;;;;;;9.95;3.42;;;;;;;21.93;57.43;100753.59;5188362;28;20029;-76
2023/04/21 08:55:54;;;;;;;7.57;3.55;;;;;;;22.76;57.46;100744.97;5185612;28;20021;-72
2023/04/21 08:58:24;;;;;;;6.25;2.80;;;;;;;22.21;55.43;100749.56;5187649;28;20083;-76
2023/04/21 09:00:55;;;;;;;6.77;3.53;;;;;;;21.50;56.29;100754.41;5188648;28;20361;-75
2023/04/21 09:03:26;;;;;;;7.00;2.80;;;;;;;22.43;54.52;100746.94;5190033;28;20272;-75
2023/04/21 09:06:01;;;;;;;5.85;2.70;;;;;;;22.78;52.73;100751.88;5187126;28;20316;-76
2023/04/21 09:08:33;;;;;;;5.97;3.13;;;;;;;23.07;52.76;100744.97;5187580;28;20061;-75
2023/04/21 09:11:04;;;;;;;7.28;3.20;;;;;;;21.48;54.86;100759.84;5189421;28;20154;-76
2023/04/21 09:13:35;;;;;;;9.02;2.70;;;;;;;20.72;56.05;100752.47;5189583;28;20544;-76
2023/04/21 09:16:17;;;;;;;7.03;2.90;;;;;;;20.94;55.89;100750.78;5187418;28;20546;-75
2023/04/21 09:18:48;;;;;;;4.97;2.47;;;;;;;21.01;56.52;100753.78;5171286;28;20026;-75
2023/04/21 09:21:19;;;;;;;7.10;3.22;;;;;;;20.98;57.29;100748.72;5171349;28;20032;-75
2023/04/21 09:23:52;;;;;;;7.55;3.10;;;;;;;21.24;58.00;100745.75;5184032;28;20072;-73
2023/04/21 09:26:22;;;;;;;8.60;2.95;;;;;;;20.73;57.99;100744.34;5186899;28;20117;-74
2023/04/21 09:28:53;;;;;;;5.38;2.78;;;;;;;20.42;56.77;100749.41;5188214;28;20113;-73
2023/04/21 09:31:23;;;;;;;5.30;2.90;;;;;;;20.13;59.41;100757.78;5185496;28;20117;-75
2023/04/21 09:33:56;;;;;;;7.78;3.60;;;;;;;20.11;58.96;100749.91;5189879;28;20036;-75
2023/04/21 09:36:28;;;;;;;6.25;2.97;;;;;;;20.46;58.99;100740.25;5187224;28;20471;-74
2023/04/21 09:39:00;;;;;;;6.22;2.53;;;;;;;20.56;58.23;100735.09;5185295;28;20084;-75
2023/04/21 09:41:31;;;;;;;6.72;2.85;;;;;;;20.32;57.61;100739.56;5191146;28;20112;-75
2023/04/21 09:44:03;;;;;;;8.77;3.00;;;;;;;20.00;57.41;100754.28;5185012;28;20364;-75
2023/04/21 09:46:35;;;;;;;10.07;2.83;;;;;;;19.65;58.34;100740.81;5187584;28;20041;-74
2023/04/21 09:49:09;;;;;;;5.85;2.83;;;;;;;19.91;59.53;100742.50;5183369;28;22733;-76
2023/04/21 09:51:40;;;;;;;4.80;2.80;;;;;;;20.14;58.53;100738.25;5187612;28;20375;-74
2023/04/21 09:54:18;;;;;;;6.20;2.85;;;;;;;19.69;57.93;100737.03;5179814;28;20030;-74
2023/04/21 09:56:51;;;;;;;7.82;2.90;;;;;;;19.73;57.54;100735.84;5186300;28;20025;-71
2023/04/21 09:59:31;;;;;;;9.18;3.28;;;;;;;19.79;58.69;100730.09;5184097;28;20213;-75
2023/04/21 10:02:05;;;;;;;7.00;3.30;;;;;;;19.68;59.19;100745.06;5184703;28;20037;-75
2023/04/21 10:04:36;;;;;;;9.25;3.50;;;;;;;19.62;58.93;100730.44;5170151;28;20029;-75
2023/04/21 10:07:08;;;;;;;6.82;2.92;;;;;;;19.91;59.94;100723.94;5187960;28;20035;-72
2023/04/21 10:09:46;;;;;;;7.38;3.33;;;;;;;20.35;61.68;100718.97;5187428;28;20026;-76
2023/04/21 10:12:17;;;;;;;7.07;2.97;;;;;;;19.70;57.06;100730.75;5188861;28;20232;-75
2023/04/21 10:14:55;;;;;;;9.10;2.90;;;;;;;19.56;55.79;100720.28;5167363;28;20022;-72
2023/04/21 10:17:26;;;;;;;6.30;2.95;;;;;;;19.46;56.94;100719.19;5186859;28;20188;-74
2023/04/21 10:19:57;;;;;;;6.65;3.15;;;;;;;19.77;59.86;100724.06;5187825;28;20659;-75
2023/04/21 10:22:34;;;;;;;11.63;3.33;;;;;;;19.85;57.87;100719.06;5189296;28;20025;-75
2023/04/21 10:25:08;;;;;;;6.90;3.63;;;;;;;19.79;59.42;100724.78;5184585;28;20496;-73
2023/04/21 10:27:40;;;;;;;9.32;3.65;;;;;;;19.52;58.15;100726.75;5187955;28;20029;-75
2023/04/21 10:30:18;;;;;;;7.35;3.60;;;;;;;19.46;57.93;100713.91;5186854;28;20045;-75
2023/04/21 10:33:04;;;;;;;7.47;3.90;;;;;;;19.27;58.82;100704.69;5166835;28;20026;-70
2023/04/21 10:36:00;;;;;;;7.72;3.70;;;;;;;19.98;59.72;100700.47;5185062;28;20144;-75
2023/04/21 10:38:38;;;;;;;6.57;3.17;;;;;;;19.68;58.06;100714.13;5186600;28;20108;-75
2023/04/21 10:41:28;;;;;;;7.88;3.03;;;;;;;19.56;57.86;100693.75;5189029;28;20044;-75
2023/04/21 10:43:59;;;;;;;16.98;4.88;;;;;;;19.36;59.10;100704.03;5190997;28;20478;-74
2023/04/21 10:46:51;;;;;;;8.25;3.53;;;;;;;19.47;58.43;100709.47;5185866;28;20045;-74
2023/04/21 10:49:24;;;;;;;9.18;3.50;;;;;;;19.43;59.26;100692.91;5187894;28;20395;-74
2023/04/21 10:51:58;;;;;;;5.97;3.42;;;;;;;19.25;58.26;100693.34;5186463;28;20022;-73
2023/04/21 10:54:40;;;;;;;5.85;3.20;;;;;;;19.33;58.06;100689.22;5183228;28;20620;-73
2023/04/21 10:57:17;;;;;;;7.28;2.88;;;;;;;19.29;57.66;100677.13;5187467;28;20044;-72
2023/04/21 10:59:50;;;;;;;6.47;3.13;;;;;;;19.34;55.37;100684.75;5189956;28;20021;-71
2023/04/21 11:02:21;;;;;;;7.22;3.65;;;;;;;19.66;58.09;100663.00;5189241;28;20025;-76
2023/04/21 11:04:52;;;;;;;8.05;3.20;;;;;;;19.36;56.41;100683.69;5168971;28;20044;-74
2023/04/21 11:07:23;;;;;;;9.80;3.38;;;;;;;19.36;56.74;100672.22;5184874;28;20551;-71
2023/04/21 11:10:07;;;;;;;6.50;3.10;;;;;;;18.90;55.76;100668.41;5189733;28;20076;-75
2023/04/21 11:12:39;;;;;;;6.45;3.30;;;;;;;19.04;57.45;100685.03;5187777;28;20145;-72
2023/04/21 11:15:14;;;;;;;6.63;3.30;;;;;;;18.76;55.72;100676.44;5180133;28;20028;-75
2023/04/21 11:17:45;;;;;;;7.00;3.42;;;;;;;18.88;56.54;100664.97;5187230;28;20028;-73
2023/04/21 11:20:16;;;;;;;6.72;3.88;;;;;;;19.08;59.02;100664.50;5188740;28;20079;-75
2023/04/21 11:22:51;;;;;;;6.00;3.10;;;;;;;19.19;60.47;100662.81;5185659;28;20022;-76
2023/04/21 11:25:22;;;;;;;9.43;3.60;;;;;;;19.25;57.03;100651.78;5185347;28;20126;-73
2023/04/21 11:27:56;;;;;;;9.38;3.45;;;;;;;19.43;55.74;100649.66;5184554;28;20124;-75
2023/04/21 11:30:32;;;;;;;7.38;3.80;;;;;;;19.61;57.93;100649.19;5186210;28;20085;-76
2023/04/21 11:33:03;;;;;;;8.35;3.22;;;;;;;19.25;54.31;100651.78;5194099;28;20029;-74
2023/04/21 11:35:38;;;;;;;6.80;3.58;;;;;;;19.07;55.32;100660.16;5185470;28;20410;-74
2023/04/21 11:38:09;;;;;;;5.55;3.08;;;;;;;19.16;55.90;100649.78;5169959;28;20041;-74
2023/04/21 11:40:47;;;;;;;5.05;2.95;;;;;;;19.11;54.58;100657.16;5192654;28;20029;-73